sensor_id;sensor_type;location;lat;lon;timestamp;temperature;humidity
13944;DHT22;7044;53.286;8.534;2022-07-29T00:01:23;14.20;34.90
13944;DHT22;7044;53.286;8.534;2022-07-29T00:03:49;14.00;99.90
13944;DHT22;7044;53.286;8.534;2022-07-29T00:06:16;14.20;99.90
13944;DHT22;7044;53.286;8.534;2022-07-29T00:08:43;14.10;99.90
13944;DHT22;7044;53.286;8.534;2022-07-29T00:11:10;14.20;99.90
13944;DHT22;7044;53.286;8.534;2022-07-29T00:13:37;14.10;99.90
13944;DHT22;7044;53.286;8.534;2022-07-29T00:16:04;14.10;1.00
13944;DHT22;7044;53.286;8.534;2022-07-29T00:18:32;13.80;1.00
13944;DHT22;7044;53.286;8.534;2022-07-29T00:20:59;14.10;1.00
13944;DHT22;7044;53.286;8.534;2022-07-29T00:23:25;14.00;1.00
13944;DHT22;7044;53.286;8.534;2022-07-29T00:25:52;14.10;1.00
13944;DHT22;7044;53.286;8.534;2022-07-29T00:28:19;14.10;1.00
13944;DHT22;7044;53.286;8.534;2022-07-29T00:30:46;14.10;1.00
13944;DHT22;7044;53.286;8.534;2022-07-29T00:33:13;14.10;1.00
13944;DHT22;7044;53.286;8.534;2022-07-29T00:35:41;14.20;1.00
13944;DHT22;7044;53.286;8.534;2022-07-29T00:38:09;14.20;1.00
13944;DHT22;7044;53.286;8.534;2022-07-29T00:40:37;13.20;1.00
13944;DHT22;7044;53.286;8.534;2022-07-29T00:43:04;14.10;1.00
13944;DHT22;7044;53.286;8.534;2022-07-29T00:45:30;13.70;1.00
13944;DHT22;7044;53.286;8.534;2022-07-29T00:47:57;13.90;26.70
13944;DHT22;7044;53.286;8.534;2022-07-29T00:50:25;14.00;24.50
13944;DHT22;7044;53.286;8.534;2022-07-29T00:52:54;14.00;99.90
13944;DHT22;7044;53.286;8.534;2022-07-29T00:55:20;14.00;99.90
13944;DHT22;7044;53.286;8.534;2022-07-29T00:57:48;14.10;99.90
13944;DHT22;7044;53.286;8.534;2022-07-29T01:00:17;14.00;99.90
13944;DHT22;7044;53.286;8.534;2022-07-29T01:02:45;13.90;99.90
13944;DHT22;7044;53.286;8.534;2022-07-29T01:05:15;13.60;99.90
13944;DHT22;7044;53.286;8.534;2022-07-29T01:07:42;13.80;99.90
13944;DHT22;7044;53.286;8.534;2022-07-29T01:10:13;13.50;99.90
13944;DHT22;7044;53.286;8.534;2022-07-29T01:12:40;13.70;99.90
13944;DHT22;7044;53.286;8.534;2022-07-29T01:15:08;13.80;99.90
13944;DHT22;7044;53.286;8.534;2022-07-29T01:17:41;13.80;99.90
13944;DHT22;7044;53.286;8.534;2022-07-29T01:20:13;13.70;99.90
13944;DHT22;7044;53.286;8.534;2022-07-29T01:23:04;13.80;99.90
13944;DHT22;7044;53.286;8.534;2022-07-29T01:25:48;13.50;99.90
13944;DHT22;7044;53.286;8.534;2022-07-29T01:28:47;13.80;99.90
13944;DHT22;7044;53.286;8.534;2022-07-29T01:31:19;13.60;99.90
13944;DHT22;7044;53.286;8.534;2022-07-29T01:33:52;13.70;99.90
13944;DHT22;7044;53.286;8.534;2022-07-29T01:36:25;13.70;99.90
13944;DHT22;7044;53.286;8.534;2022-07-29T01:38:59;13.70;99.90
13944;DHT22;7044;53.286;8.534;2022-07-29T01:41:29;13.70;1.00
13944;DHT22;7044;53.286;8.534;2022-07-29T01:44:02;13.90;1.00
13944;DHT22;7044;53.286;8.534;2022-07-29T01:46:34;13.70;1.00
13944;DHT22;7044;53.286;8.534;2022-07-29T01:49:10;13.70;1.00
13944;DHT22;7044;53.286;8.534;2022-07-29T01:51:43;13.60;1.00
13944;DHT22;7044;53.286;8.534;2022-07-29T01:54:16;13.50;1.00
13944;DHT22;7044;53.286;8.534;2022-07-29T01:56:46;13.50;1.00
13944;DHT22;7044;53.286;8.534;2022-07-29T01:59:16;14.50;1.00
13944;DHT22;7044;53.286;8.534;2022-07-29T02:01:45;13.60;1.00
13944;DHT22;7044;53.286;8.534;2022-07-29T02:04:15;13.50;1.00
13944;DHT22;7044;53.286;8.534;2022-07-29T02:06:43;13.50;1.00
13944;DHT22;7044;53.286;8.534;2022-07-29T02:09:12;13.70;1.00
13944;DHT22;7044;53.286;8.534;2022-07-29T02:11:41;13.50;1.00
13944;DHT22;7044;53.286;8.534;2022-07-29T02:14:12;13.50;1.00
13944;DHT22;7044;53.286;8.534;2022-07-29T02:16:42;13.60;1.00
13944;DHT22;7044;53.286;8.534;2022-07-29T02:19:12;13.50;1.00
13944;DHT22;7044;53.286;8.534;2022-07-29T02:21:40;13.60;1.00
13944;DHT22;7044;53.286;8.534;2022-07-29T02:24:10;13.60;1.00
13944;DHT22;7044;53.286;8.534;2022-07-29T02:26:38;13.70;1.00
13944;DHT22;7044;53.286;8.534;2022-07-29T02:29:06;13.60;1.00
13944;DHT22;7044;53.286;8.534;2022-07-29T02:31:35;13.70;1.00
13944;DHT22;7044;53.286;8.534;2022-07-29T02:34:07;13.50;1.00
13944;DHT22;7044;53.286;8.534;2022-07-29T02:36:34;13.40;1.00
13944;DHT22;7044;53.286;8.534;2022-07-29T02:39:02;13.00;1.00
13944;DHT22;7044;53.286;8.534;2022-07-29T02:41:33;13.40;1.00
13944;DHT22;7044;53.286;8.534;2022-07-29T02:44:05;13.40;1.00
13944;DHT22;7044;53.286;8.534;2022-07-29T02:46:34;13.30;1.00
13944;DHT22;7044;53.286;8.534;2022-07-29T02:49:07;13.20;1.00
13944;DHT22;7044;53.286;8.534;2022-07-29T02:51:41;13.20;1.00
13944;DHT22;7044;53.286;8.534;2022-07-29T02:54:11;13.20;1.00
13944;DHT22;7044;53.286;8.534;2022-07-29T02:56:39;13.40;1.00
13944;DHT22;7044;53.286;8.534;2022-07-29T02:59:10;13.50;1.00
13944;DHT22;7044;53.286;8.534;2022-07-29T03:01:40;13.40;1.00
13944;DHT22;7044;53.286;8.534;2022-07-29T03:04:09;13.20;1.00
13944;DHT22;7044;53.286;8.534;2022-07-29T03:06:38;13.50;1.00
13944;DHT22;7044;53.286;8.534;2022-07-29T03:09:07;13.40;1.00
13944;DHT22;7044;53.286;8.534;2022-07-29T03:11:36;13.60;1.00
13944;DHT22;7044;53.286;8.534;2022-07-29T03:14:05;13.20;1.00
13944;DHT22;7044;53.286;8.534;2022-07-29T03:16:33;13.60;1.00
13944;DHT22;7044;53.286;8.534;2022-07-29T03:19:02;13.60;1.00
13944;DHT22;7044;53.286;8.534;2022-07-29T03:21:31;13.50;1.00
13944;DHT22;7044;53.286;8.534;2022-07-29T03:23:57;14.00;1.00
13944;DHT22;7044;53.286;8.534;2022-07-29T03:26:24;13.60;1.00
13944;DHT22;7044;53.286;8.534;2022-07-29T03:28:51;13.70;1.00
13944;DHT22;7044;53.286;8.534;2022-07-29T03:31:18;13.70;1.00
13944;DHT22;7044;53.286;8.534;2022-07-29T03:33:45;13.60;1.00
13944;DHT22;7044;53.286;8.534;2022-07-29T03:36:11;13.70;1.00
13944;DHT22;7044;53.286;8.534;2022-07-29T03:38:42;13.70;1.00
13944;DHT22;7044;53.286;8.534;2022-07-29T03:41:11;14.80;1.00
13944;DHT22;7044;53.286;8.534;2022-07-29T03:43:41;13.20;1.00
13944;DHT22;7044;53.286;8.534;2022-07-29T03:46:09;13.80;1.00
13944;DHT22;7044;53.286;8.534;2022-07-29T03:48:39;13.70;1.00
13944;DHT22;7044;53.286;8.534;2022-07-29T03:51:08;13.70;1.00
13944;DHT22;7044;53.286;8.534;2022-07-29T03:53:35;13.70;1.00
13944;DHT22;7044;53.286;8.534;2022-07-29T03:56:06;13.40;1.00
13944;DHT22;7044;53.286;8.534;2022-07-29T03:58:35;13.70;1.00
13944;DHT22;7044;53.286;8.534;2022-07-29T04:01:02;13.90;1.00
13944;DHT22;7044;53.286;8.534;2022-07-29T04:03:29;13.70;1.00
13944;DHT22;7044;53.286;8.534;2022-07-29T04:06:00;13.70;1.00
13944;DHT22;7044;53.286;8.534;2022-07-29T04:08:27;13.80;1.00
13944;DHT22;7044;53.286;8.534;2022-07-29T04:10:54;13.60;1.00
13944;DHT22;7044;53.286;8.534;2022-07-29T04:13:22;13.70;1.00
13944;DHT22;7044;53.286;8.534;2022-07-29T04:15:49;13.80;1.00
13944;DHT22;7044;53.286;8.534;2022-07-29T04:18:16;13.60;1.00
13944;DHT22;7044;53.286;8.534;2022-07-29T04:20:43;13.90;1.00
13944;DHT22;7044;53.286;8.534;2022-07-29T04:23:10;13.90;1.00
13944;DHT22;7044;53.286;8.534;2022-07-29T04:25:37;14.00;1.00
13944;DHT22;7044;53.286;8.534;2022-07-29T04:28:05;13.90;1.00
13944;DHT22;7044;53.286;8.534;2022-07-29T04:30:35;14.20;1.00
13944;DHT22;7044;53.286;8.534;2022-07-29T04:33:04;13.90;1.00
13944;DHT22;7044;53.286;8.534;2022-07-29T04:35:34;13.90;1.00
13944;DHT22;7044;53.286;8.534;2022-07-29T04:38:01;14.00;1.00
13944;DHT22;7044;53.286;8.534;2022-07-29T04:40:28;13.90;1.00
13944;DHT22;7044;53.286;8.534;2022-07-29T04:42:55;17.40;1.00
13944;DHT22;7044;53.286;8.534;2022-07-29T04:45:22;14.00;1.00
13944;DHT22;7044;53.286;8.534;2022-07-29T04:47:50;14.20;1.00
13944;DHT22;7044;53.286;8.534;2022-07-29T04:50:17;14.10;1.00
13944;DHT22;7044;53.286;8.534;2022-07-29T04:52:44;14.10;1.00
13944;DHT22;7044;53.286;8.534;2022-07-29T04:55:11;14.10;1.00
13944;DHT22;7044;53.286;8.534;2022-07-29T04:57:38;14.20;1.00
13944;DHT22;7044;53.286;8.534;2022-07-29T05:00:07;14.40;1.00
13944;DHT22;7044;53.286;8.534;2022-07-29T05:02:34;14.20;1.00
13944;DHT22;7044;53.286;8.534;2022-07-29T05:05:02;14.20;1.00
13944;DHT22;7044;53.286;8.534;2022-07-29T05:07:29;14.40;1.00
13944;DHT22;7044;53.286;8.534;2022-07-29T05:09:56;14.30;1.00
13944;DHT22;7044;53.286;8.534;2022-07-29T05:12:23;14.50;1.00
13944;DHT22;7044;53.286;8.534;2022-07-29T05:14:50;14.40;1.00
13944;DHT22;7044;53.286;8.534;2022-07-29T05:17:17;14.50;1.00
13944;DHT22;7044;53.286;8.534;2022-07-29T05:19:43;14.40;1.00
13944;DHT22;7044;53.286;8.534;2022-07-29T05:22:12;14.40;1.00
13944;DHT22;7044;53.286;8.534;2022-07-29T05:24:38;14.40;1.00
13944;DHT22;7044;53.286;8.534;2022-07-29T05:27:06;14.50;1.00
13944;DHT22;7044;53.286;8.534;2022-07-29T05:29:32;14.60;1.00
13944;DHT22;7044;53.286;8.534;2022-07-29T05:31:59;14.40;1.00
13944;DHT22;7044;53.286;8.534;2022-07-29T05:36:53;14.50;1.00
13944;DHT22;7044;53.286;8.534;2022-07-29T05:39:22;14.30;1.00
13944;DHT22;7044;53.286;8.534;2022-07-29T05:41:48;16.10;1.00
13944;DHT22;7044;53.286;8.534;2022-07-29T05:44:15;15.40;99.90
13944;DHT22;7044;53.286;8.534;2022-07-29T05:46:45;14.60;99.90
13944;DHT22;7044;53.286;8.534;2022-07-29T05:49:11;14.60;99.90
13944;DHT22;7044;53.286;8.534;2022-07-29T05:51:38;14.60;99.90
13944;DHT22;7044;53.286;8.534;2022-07-29T05:54:06;14.70;99.90
13944;DHT22;7044;53.286;8.534;2022-07-29T05:56:37;14.70;99.90
13944;DHT22;7044;53.286;8.534;2022-07-29T05:59:04;14.80;99.90
13944;DHT22;7044;53.286;8.534;2022-07-29T06:01:30;14.90;99.90
13944;DHT22;7044;53.286;8.534;2022-07-29T06:03:57;14.70;99.90
13944;DHT22;7044;53.286;8.534;2022-07-29T06:06:24;16.00;99.90
13944;DHT22;7044;53.286;8.534;2022-07-29T06:08:51;14.90;99.90
13944;DHT22;7044;53.286;8.534;2022-07-29T06:11:18;15.30;99.90
13944;DHT22;7044;53.286;8.534;2022-07-29T06:13:46;15.00;99.90
13944;DHT22;7044;53.286;8.534;2022-07-29T06:16:13;15.30;99.90
13944;DHT22;7044;53.286;8.534;2022-07-29T06:18:39;15.10;99.90
13944;DHT22;7044;53.286;8.534;2022-07-29T06:23:36;15.20;99.90
13944;DHT22;7044;53.286;8.534;2022-07-29T06:26:03;15.20;99.90
13944;DHT22;7044;53.286;8.534;2022-07-29T06:28:30;15.40;99.90
13944;DHT22;7044;53.286;8.534;2022-07-29T06:30:59;15.30;99.90
13944;DHT22;7044;53.286;8.534;2022-07-29T06:33:26;15.30;99.90
13944;DHT22;7044;53.286;8.534;2022-07-29T06:35:53;15.30;1.00
13944;DHT22;7044;53.286;8.534;2022-07-29T06:38:20;15.20;1.00
13944;DHT22;7044;53.286;8.534;2022-07-29T06:40:47;15.70;40.10
13944;DHT22;7044;53.286;8.534;2022-07-29T06:43:32;15.00;34.40
13944;DHT22;7044;53.286;8.534;2022-07-29T06:46:04;15.40;48.00
13944;DHT22;7044;53.286;8.534;2022-07-29T06:48:32;15.50;27.10
13944;DHT22;7044;53.286;8.534;2022-07-29T06:50:59;16.00;9.20
13944;DHT22;7044;53.286;8.534;2022-07-29T06:53:27;15.50;1.00
13944;DHT22;7044;53.286;8.534;2022-07-29T06:55:54;15.40;1.00
13944;DHT22;7044;53.286;8.534;2022-07-29T06:58:21;15.60;1.00
13944;DHT22;7044;53.286;8.534;2022-07-29T07:00:48;16.30;1.00
13944;DHT22;7044;53.286;8.534;2022-07-29T07:03:16;15.60;1.00
13944;DHT22;7044;53.286;8.534;2022-07-29T07:05:43;15.70;1.00
13944;DHT22;7044;53.286;8.534;2022-07-29T07:08:11;15.80;1.00
13944;DHT22;7044;53.286;8.534;2022-07-29T07:10:38;15.80;1.00
13944;DHT22;7044;53.286;8.534;2022-07-29T07:13:06;15.90;1.00
13944;DHT22;7044;53.286;8.534;2022-07-29T07:15:34;15.90;1.00
13944;DHT22;7044;53.286;8.534;2022-07-29T07:18:01;15.80;1.00
13944;DHT22;7044;53.286;8.534;2022-07-29T07:22:56;16.20;99.90
13944;DHT22;7044;53.286;8.534;2022-07-29T07:25:23;16.30;99.90
13944;DHT22;7044;53.286;8.534;2022-07-29T07:27:51;16.30;99.90
13944;DHT22;7044;53.286;8.534;2022-07-29T07:30:17;16.30;99.90
13944;DHT22;7044;53.286;8.534;2022-07-29T07:32:44;16.30;99.90
13944;DHT22;7044;53.286;8.534;2022-07-29T07:35:11;16.40;1.00
13944;DHT22;7044;53.286;8.534;2022-07-29T07:40:09;16.50;1.00
13944;DHT22;7044;53.286;8.534;2022-07-29T07:42:37;16.50;1.00
13944;DHT22;7044;53.286;8.534;2022-07-29T07:45:04;16.80;1.00
13944;DHT22;7044;53.286;8.534;2022-07-29T07:47:31;16.70;1.00
13944;DHT22;7044;53.286;8.534;2022-07-29T07:49:58;16.80;1.00
13944;DHT22;7044;53.286;8.534;2022-07-29T07:52:25;16.80;1.00
13944;DHT22;7044;53.286;8.534;2022-07-29T07:54:53;16.90;1.00
13944;DHT22;7044;53.286;8.534;2022-07-29T07:57:20;17.10;1.00
13944;DHT22;7044;53.286;8.534;2022-07-29T08:02:14;17.30;1.00
13944;DHT22;7044;53.286;8.534;2022-07-29T08:07:08;17.40;94.60
13944;DHT22;7044;53.286;8.534;2022-07-29T08:09:35;17.30;1.00
13944;DHT22;7044;53.286;8.534;2022-07-29T08:12:04;17.40;1.00
13944;DHT22;7044;53.286;8.534;2022-07-29T08:14:32;17.40;12.10
13944;DHT22;7044;53.286;8.534;2022-07-29T08:16:59;18.30;99.90
13944;DHT22;7044;53.286;8.534;2022-07-29T08:19:26;17.40;99.90
13944;DHT22;7044;53.286;8.534;2022-07-29T08:21:53;17.50;99.90
13944;DHT22;7044;53.286;8.534;2022-07-29T08:24:20;17.50;99.90
13944;DHT22;7044;53.286;8.534;2022-07-29T08:27:06;17.60;99.90
13944;DHT22;7044;53.286;8.534;2022-07-29T08:29:32;17.90;1.00
13944;DHT22;7044;53.286;8.534;2022-07-29T08:31:59;17.70;1.00
13944;DHT22;7044;53.286;8.534;2022-07-29T08:34:26;17.80;1.00
13944;DHT22;7044;53.286;8.534;2022-07-29T08:36:54;17.90;1.00
13944;DHT22;7044;53.286;8.534;2022-07-29T08:39:20;17.80;1.00
13944;DHT22;7044;53.286;8.534;2022-07-29T08:41:47;17.90;1.00
13944;DHT22;7044;53.286;8.534;2022-07-29T08:44:16;17.90;99.90
13944;DHT22;7044;53.286;8.534;2022-07-29T08:46:43;17.80;99.90
13944;DHT22;7044;53.286;8.534;2022-07-29T08:49:11;18.00;99.90
13944;DHT22;7044;53.286;8.534;2022-07-29T08:51:39;18.10;1.00
13944;DHT22;7044;53.286;8.534;2022-07-29T08:54:08;18.20;99.90
13944;DHT22;7044;53.286;8.534;2022-07-29T08:56:36;18.20;66.40
13944;DHT22;7044;53.286;8.534;2022-07-29T08:59:03;18.40;1.00
13944;DHT22;7044;53.286;8.534;2022-07-29T09:01:33;18.30;99.90
13944;DHT22;7044;53.286;8.534;2022-07-29T09:04:05;18.40;99.90
13944;DHT22;7044;53.286;8.534;2022-07-29T09:06:37;18.50;99.90
13944;DHT22;7044;53.286;8.534;2022-07-29T09:09:07;18.50;99.90
13944;DHT22;7044;53.286;8.534;2022-07-29T09:11:34;17.60;1.00
13944;DHT22;7044;53.286;8.534;2022-07-29T09:14:02;18.40;3.50
13944;DHT22;7044;53.286;8.534;2022-07-29T09:19:27;19.20;99.90
13944;DHT22;7044;53.286;8.534;2022-07-29T09:21:56;19.20;1.00
13944;DHT22;7044;53.286;8.534;2022-07-29T09:24:47;19.50;1.00
13944;DHT22;7044;53.286;8.534;2022-07-29T09:27:21;19.80;99.90
13944;DHT22;7044;53.286;8.534;2022-07-29T09:29:56;19.90;99.90
13944;DHT22;7044;53.286;8.534;2022-07-29T09:32:24;19.90;99.90
13944;DHT22;7044;53.286;8.534;2022-07-29T09:35:18;19.90;99.90
13944;DHT22;7044;53.286;8.534;2022-07-29T09:37:46;19.90;99.90
13944;DHT22;7044;53.286;8.534;2022-07-29T09:40:15;19.90;99.90
13944;DHT22;7044;53.286;8.534;2022-07-29T09:42:42;20.10;1.00
13944;DHT22;7044;53.286;8.534;2022-07-29T09:45:09;20.10;1.00
13944;DHT22;7044;53.286;8.534;2022-07-29T09:47:45;20.20;1.00
13944;DHT22;7044;53.286;8.534;2022-07-29T09:50:13;20.30;1.00
13944;DHT22;7044;53.286;8.534;2022-07-29T09:52:48;20.40;1.00
13944;DHT22;7044;53.286;8.534;2022-07-29T09:55:16;20.50;1.00
13944;DHT22;7044;53.286;8.534;2022-07-29T09:57:43;20.50;1.00
13944;DHT22;7044;53.286;8.534;2022-07-29T10:00:13;20.40;1.00
13944;DHT22;7044;53.286;8.534;2022-07-29T10:02:41;20.60;1.00
13944;DHT22;7044;53.286;8.534;2022-07-29T10:05:17;20.60;1.00
13944;DHT22;7044;53.286;8.534;2022-07-29T10:07:47;20.70;1.00
13944;DHT22;7044;53.286;8.534;2022-07-29T10:10:20;19.60;1.00
13944;DHT22;7044;53.286;8.534;2022-07-29T10:12:52;20.80;1.00
13944;DHT22;7044;53.286;8.534;2022-07-29T10:15:21;20.90;1.00
13944;DHT22;7044;53.286;8.534;2022-07-29T10:17:49;20.90;1.00
13944;DHT22;7044;53.286;8.534;2022-07-29T10:20:17;20.90;1.00
13944;DHT22;7044;53.286;8.534;2022-07-29T10:22:44;20.90;1.00
13944;DHT22;7044;53.286;8.534;2022-07-29T10:25:14;21.00;1.00
13944;DHT22;7044;53.286;8.534;2022-07-29T10:27:41;21.10;1.00
13944;DHT22;7044;53.286;8.534;2022-07-29T10:30:10;21.20;1.00
13944;DHT22;7044;53.286;8.534;2022-07-29T10:32:58;21.10;1.00
13944;DHT22;7044;53.286;8.534;2022-07-29T10:35:49;21.20;1.00
13944;DHT22;7044;53.286;8.534;2022-07-29T10:38:43;21.40;1.00
13944;DHT22;7044;53.286;8.534;2022-07-29T10:41:39;21.40;1.00
13944;DHT22;7044;53.286;8.534;2022-07-29T10:44:15;21.50;99.90
13944;DHT22;7044;53.286;8.534;2022-07-29T10:46:43;21.40;1.00
13944;DHT22;7044;53.286;8.534;2022-07-29T10:49:12;21.50;1.00
13944;DHT22;7044;53.286;8.534;2022-07-29T10:51:52;21.40;99.90
13944;DHT22;7044;53.286;8.534;2022-07-29T10:54:40;21.80;1.00
13944;DHT22;7044;53.286;8.534;2022-07-29T10:57:18;21.70;99.90
13944;DHT22;7044;53.286;8.534;2022-07-29T10:59:46;21.80;99.90
13944;DHT22;7044;53.286;8.534;2022-07-29T11:02:45;21.90;99.90
13944;DHT22;7044;53.286;8.534;2022-07-29T11:05:17;22.00;99.90
13944;DHT22;7044;53.286;8.534;2022-07-29T11:08:23;22.20;99.90
13944;DHT22;7044;53.286;8.534;2022-07-29T11:10:52;22.10;99.90
13944;DHT22;7044;53.286;8.534;2022-07-29T11:13:46;22.10;99.90
13944;DHT22;7044;53.286;8.534;2022-07-29T11:16:13;22.20;99.90
13944;DHT22;7044;53.286;8.534;2022-07-29T11:21:45;22.30;99.90
13944;DHT22;7044;53.286;8.534;2022-07-29T11:24:13;22.20;99.90
13944;DHT22;7044;53.286;8.534;2022-07-29T11:26:41;22.30;99.90
13944;DHT22;7044;53.286;8.534;2022-07-29T11:29:19;22.30;99.90
13944;DHT22;7044;53.286;8.534;2022-07-29T11:31:49;22.30;99.90
13944;DHT22;7044;53.286;8.534;2022-07-29T11:34:24;22.40;99.90
13944;DHT22;7044;53.286;8.534;2022-07-29T11:37:17;22.40;99.90
13944;DHT22;7044;53.286;8.534;2022-07-29T11:39:45;22.50;99.90
13944;DHT22;7044;53.286;8.534;2022-07-29T11:42:41;22.40;99.90
13944;DHT22;7044;53.286;8.534;2022-07-29T11:45:21;22.40;99.90
13944;DHT22;7044;53.286;8.534;2022-07-29T11:47:53;22.30;99.90
13944;DHT22;7044;53.286;8.534;2022-07-29T11:50:29;22.40;99.90
13944;DHT22;7044;53.286;8.534;2022-07-29T11:52:56;22.40;99.90
13944;DHT22;7044;53.286;8.534;2022-07-29T11:55:24;22.40;99.90
13944;DHT22;7044;53.286;8.534;2022-07-29T11:57:52;22.70;99.90
13944;DHT22;7044;53.286;8.534;2022-07-29T12:00:29;22.50;99.90
13944;DHT22;7044;53.286;8.534;2022-07-29T12:02:57;22.50;99.90
13944;DHT22;7044;53.286;8.534;2022-07-29T12:05:33;22.60;99.90
13944;DHT22;7044;53.286;8.534;2022-07-29T12:08:12;22.50;99.90
13944;DHT22;7044;53.286;8.534;2022-07-29T12:10:40;22.50;99.90
13944;DHT22;7044;53.286;8.534;2022-07-29T12:13:07;22.50;99.90
13944;DHT22;7044;53.286;8.534;2022-07-29T12:15:36;22.50;99.90
13944;DHT22;7044;53.286;8.534;2022-07-29T12:18:13;22.50;99.90
13944;DHT22;7044;53.286;8.534;2022-07-29T12:20:41;22.50;99.90
13944;DHT22;7044;53.286;8.534;2022-07-29T12:23:08;22.70;99.90
13944;DHT22;7044;53.286;8.534;2022-07-29T12:25:38;22.50;99.90
13944;DHT22;7044;53.286;8.534;2022-07-29T12:28:06;22.50;99.90
13944;DHT22;7044;53.286;8.534;2022-07-29T12:30:40;22.50;99.90
13944;DHT22;7044;53.286;8.534;2022-07-29T12:33:12;22.60;99.90
13944;DHT22;7044;53.286;8.534;2022-07-29T12:35:39;22.50;99.90
13944;DHT22;7044;53.286;8.534;2022-07-29T12:38:06;22.70;99.90
13944;DHT22;7044;53.286;8.534;2022-07-29T12:40:33;22.50;99.90
13944;DHT22;7044;53.286;8.534;2022-07-29T12:43:05;22.50;99.90
13944;DHT22;7044;53.286;8.534;2022-07-29T12:45:32;22.60;99.90
13944;DHT22;7044;53.286;8.534;2022-07-29T12:48:01;22.00;99.90
13944;DHT22;7044;53.286;8.534;2022-07-29T12:50:28;22.60;99.90
13944;DHT22;7044;53.286;8.534;2022-07-29T12:53:08;22.60;99.90
13944;DHT22;7044;53.286;8.534;2022-07-29T12:55:40;22.60;99.90
13944;DHT22;7044;53.286;8.534;2022-07-29T12:58:07;22.80;99.90
13944;DHT22;7044;53.286;8.534;2022-07-29T13:00:34;22.60;99.90
13944;DHT22;7044;53.286;8.534;2022-07-29T13:03:02;22.80;99.90
13944;DHT22;7044;53.286;8.534;2022-07-29T13:05:43;22.70;99.90
13944;DHT22;7044;53.286;8.534;2022-07-29T13:08:12;22.80;99.90
13944;DHT22;7044;53.286;8.534;2022-07-29T13:10:38;22.80;99.90
13944;DHT22;7044;53.286;8.534;2022-07-29T13:13:07;22.90;99.90
13944;DHT22;7044;53.286;8.534;2022-07-29T13:15:35;23.00;99.90
13944;DHT22;7044;53.286;8.534;2022-07-29T13:18:04;22.90;99.90
13944;DHT22;7044;53.286;8.534;2022-07-29T13:20:32;22.90;99.90
13944;DHT22;7044;53.286;8.534;2022-07-29T13:23:00;23.10;99.90
13944;DHT22;7044;53.286;8.534;2022-07-29T13:25:28;22.90;99.90
13944;DHT22;7044;53.286;8.534;2022-07-29T13:27:55;22.80;99.90
13944;DHT22;7044;53.286;8.534;2022-07-29T13:30:23;22.80;99.90
13944;DHT22;7044;53.286;8.534;2022-07-29T13:32:50;22.70;99.90
13944;DHT22;7044;53.286;8.534;2022-07-29T13:35:20;22.70;99.90
13944;DHT22;7044;53.286;8.534;2022-07-29T13:37:47;22.60;99.90
13944;DHT22;7044;53.286;8.534;2022-07-29T13:40:13;22.60;99.90
13944;DHT22;7044;53.286;8.534;2022-07-29T13:42:41;22.60;99.90
13944;DHT22;7044;53.286;8.534;2022-07-29T13:45:09;22.60;99.90
13944;DHT22;7044;53.286;8.534;2022-07-29T13:47:37;22.50;99.90
13944;DHT22;7044;53.286;8.534;2022-07-29T13:50:06;22.60;99.90
13944;DHT22;7044;53.286;8.534;2022-07-29T13:52:36;22.60;99.90
13944;DHT22;7044;53.286;8.534;2022-07-29T13:55:05;22.60;99.90
13944;DHT22;7044;53.286;8.534;2022-07-29T13:57:31;22.60;99.90
13944;DHT22;7044;53.286;8.534;2022-07-29T13:59:58;22.60;99.90
13944;DHT22;7044;53.286;8.534;2022-07-29T14:02:25;22.60;99.90
13944;DHT22;7044;53.286;8.534;2022-07-29T14:04:52;22.60;99.90
13944;DHT22;7044;53.286;8.534;2022-07-29T14:07:19;22.60;99.90
13944;DHT22;7044;53.286;8.534;2022-07-29T14:09:47;22.80;99.90
13944;DHT22;7044;53.286;8.534;2022-07-29T14:12:14;22.40;99.90
13944;DHT22;7044;53.286;8.534;2022-07-29T14:14:40;22.50;99.90
13944;DHT22;7044;53.286;8.534;2022-07-29T14:17:07;22.60;99.90
13944;DHT22;7044;53.286;8.534;2022-07-29T14:19:34;22.60;99.90
13944;DHT22;7044;53.286;8.534;2022-07-29T14:22:03;22.70;99.90
13944;DHT22;7044;53.286;8.534;2022-07-29T14:24:31;22.70;99.90
13944;DHT22;7044;53.286;8.534;2022-07-29T14:26:59;22.80;99.90
13944;DHT22;7044;53.286;8.534;2022-07-29T14:29:26;22.80;99.90
13944;DHT22;7044;53.286;8.534;2022-07-29T14:31:53;22.80;99.90
13944;DHT22;7044;53.286;8.534;2022-07-29T14:34:19;22.80;99.90
13944;DHT22;7044;53.286;8.534;2022-07-29T14:36:46;22.80;99.90
13944;DHT22;7044;53.286;8.534;2022-07-29T14:39:13;22.80;99.90
13944;DHT22;7044;53.286;8.534;2022-07-29T14:41:41;22.80;99.90
13944;DHT22;7044;53.286;8.534;2022-07-29T14:44:09;22.80;99.90
13944;DHT22;7044;53.286;8.534;2022-07-29T14:46:36;22.80;99.90
13944;DHT22;7044;53.286;8.534;2022-07-29T14:49:03;22.80;99.90
13944;DHT22;7044;53.286;8.534;2022-07-29T14:51:31;22.80;99.90
13944;DHT22;7044;53.286;8.534;2022-07-29T14:53:57;22.80;99.90
13944;DHT22;7044;53.286;8.534;2022-07-29T14:56:24;22.70;99.90
13944;DHT22;7044;53.286;8.534;2022-07-29T14:58:52;22.90;99.90
13944;DHT22;7044;53.286;8.534;2022-07-29T15:01:20;22.70;99.90
13944;DHT22;7044;53.286;8.534;2022-07-29T15:03:47;20.00;99.90
13944;DHT22;7044;53.286;8.534;2022-07-29T15:06:14;22.40;99.90
13944;DHT22;7044;53.286;8.534;2022-07-29T15:08:41;22.60;99.90
13944;DHT22;7044;53.286;8.534;2022-07-29T15:11:07;22.60;99.90
13944;DHT22;7044;53.286;8.534;2022-07-29T15:13:34;22.50;99.90
13944;DHT22;7044;53.286;8.534;2022-07-29T15:16:01;22.50;99.90
13944;DHT22;7044;53.286;8.534;2022-07-29T15:18:30;22.40;99.90
13944;DHT22;7044;53.286;8.534;2022-07-29T15:20:57;22.30;99.90
13944;DHT22;7044;53.286;8.534;2022-07-29T15:23:25;22.30;99.90
13944;DHT22;7044;53.286;8.534;2022-07-29T15:25:52;22.20;99.90
13944;DHT22;7044;53.286;8.534;2022-07-29T15:28:19;22.20;99.90
13944;DHT22;7044;53.286;8.534;2022-07-29T15:30:46;22.10;99.90
13944;DHT22;7044;53.286;8.534;2022-07-29T15:33:13;22.10;99.90
13944;DHT22;7044;53.286;8.534;2022-07-29T15:35:41;22.00;99.90
13944;DHT22;7044;53.286;8.534;2022-07-29T15:38:08;22.00;99.90
13944;DHT22;7044;53.286;8.534;2022-07-29T15:40:36;21.90;99.90
13944;DHT22;7044;53.286;8.534;2022-07-29T15:43:04;21.90;99.90
13944;DHT22;7044;53.286;8.534;2022-07-29T15:45:35;21.90;1.00
13944;DHT22;7044;53.286;8.534;2022-07-29T15:48:04;21.70;99.90
13944;DHT22;7044;53.286;8.534;2022-07-29T15:50:32;21.40;1.00
13944;DHT22;7044;53.286;8.534;2022-07-29T15:53:00;21.60;99.90
13944;DHT22;7044;53.286;8.534;2022-07-29T15:55:27;21.80;99.90
13944;DHT22;7044;53.286;8.534;2022-07-29T15:57:54;21.60;99.90
13944;DHT22;7044;53.286;8.534;2022-07-29T16:00:21;21.60;99.90
13944;DHT22;7044;53.286;8.534;2022-07-29T16:02:49;21.60;1.00
13944;DHT22;7044;53.286;8.534;2022-07-29T16:05:15;21.50;1.00
13944;DHT22;7044;53.286;8.534;2022-07-29T16:07:42;21.50;1.00
13944;DHT22;7044;53.286;8.534;2022-07-29T16:10:10;21.50;1.00
13944;DHT22;7044;53.286;8.534;2022-07-29T16:12:37;21.50;1.00
13944;DHT22;7044;53.286;8.534;2022-07-29T16:15:04;21.40;1.00
13944;DHT22;7044;53.286;8.534;2022-07-29T16:17:31;21.40;1.00
13944;DHT22;7044;53.286;8.534;2022-07-29T16:19:58;21.70;1.00
13944;DHT22;7044;53.286;8.534;2022-07-29T16:22:25;21.20;1.00
13944;DHT22;7044;53.286;8.534;2022-07-29T16:24:52;21.40;1.00
13944;DHT22;7044;53.286;8.534;2022-07-29T16:27:20;21.40;1.00
13944;DHT22;7044;53.286;8.534;2022-07-29T16:29:51;21.30;1.00